Time;durP1;ratioP1;P1;durP2;ratioP2;P2;SDS_P1;SDS_P2;PMS_P1;PMS_P2;Temp;Humidity;BMP_temperature;BMP_pressure;BME280_temperature;BME280_humidity;BME280_pressure;Samples;Min_cycle;Max_cycle;Signal;HPM_P1;HPM_P2
2022/04/19 00:00:06;;;;;;;;;;;9.70;57.20;;;;;;4981314;28;19925;-76
2022/04/19 00:02:33;;;;;;;;;;;9.70;57.60;;;;;;4984525;28;19979;-75
2022/04/19 00:04:59;;;;;;;;;;;9.60;57.90;;;;;;4980159;28;19934;-76
2022/04/19 00:07:26;;;;;;;;;;;9.60;58.40;;;;;;4986482;28;19934;-76
2022/04/19 00:09:53;;;;;;;;;;;9.60;58.70;;;;;;4978918;28;20289;-77
2022/04/19 00:12:20;;;;;;;;;;;9.60;59.10;;;;;;4982432;28;20602;-76
2022/04/19 00:14:47;;;;;;;;;;;9.50;59.30;;;;;;4981544;28;19940;-76
2022/04/19 00:17:18;;;;;;;;;;;9.50;59.50;;;;;;4983360;28;19926;-76
2022/04/19 00:19:45;;;;;;;;;;;9.40;60.30;;;;;;4983566;28;19955;-77
2022/04/19 00:22:13;;;;;;;;;;;9.40;61.10;;;;;;4987202;28;19934;-77
2022/04/19 00:24:39;;;;;;;;;;;9.40;62.20;;;;;;4990629;28;20451;-79
2022/04/19 00:27:06;;;;;;;;;;;9.30;62.60;;;;;;4979775;28;19961;-78
2022/04/19 00:29:33;;;;;;;;;;;9.30;63.50;;;;;;4984865;28;19926;-78
2022/04/19 00:31:59;;;;;;;;;;;9.30;64.10;;;;;;4979339;28;19936;-78
2022/04/19 00:34:28;;;;;;;;;;;9.30;65.50;;;;;;4981693;28;20383;-78
2022/04/19 00:36:55;;;;;;;;;;;9.30;65.20;;;;;;4983354;28;19926;-78
2022/04/19 00:39:22;;;;;;;;;;;9.30;65.90;;;;;;4986981;28;20032;-79
2022/04/19 00:41:49;;;;;;;;;;;9.30;66.50;;;;;;4985855;28;19930;-78
2022/04/19 00:44:16;;;;;;;;;;;9.20;66.90;;;;;;4987448;28;20362;-76
2022/04/19 00:46:42;;;;;;;;;;;9.20;67.60;;;;;;4983015;28;19926;-77
2022/04/19 00:49:09;;;;;;;;;;;9.20;67.90;;;;;;4982638;28;19929;-78
2022/04/19 00:51:37;;;;;;;;;;;9.10;68.50;;;;;;4980184;28;20289;-77
2022/04/19 00:54:04;;;;;;;;;;;9.10;69.20;;;;;;4985498;28;19932;-77
2022/04/19 00:56:30;;;;;;;;;;;8.90;70.30;;;;;;4994956;28;19932;-78
2022/04/19 00:58:57;;;;;;;;;;;8.90;72.20;;;;;;4987383;28;19926;-77
2022/04/19 01:01:24;;;;;;;;;;;8.90;73.80;;;;;;4983281;28;19956;-77
2022/04/19 01:03:50;;;;;;;;;;;9.00;74.40;;;;;;4987978;28;19926;-77
2022/04/19 01:06:18;;;;;;;;;;;9.00;75.10;;;;;;4984781;28;19933;-78
2022/04/19 01:08:46;;;;;;;;;;;9.00;75.80;;;;;;4985412;28;19930;-77
2022/04/19 01:14:02;;;;;;;;;;;9.00;77.30;;;;;;4981224;28;19938;-76
2022/04/19 01:16:28;;;;;;;;;;;9.00;78.20;;;;;;4985312;28;19926;-76
2022/04/19 01:18:56;;;;;;;;;;;9.00;79.00;;;;;;4979956;28;19933;-76
2022/04/19 01:21:23;;;;;;;;;;;8.90;79.70;;;;;;4982901;28;19925;-77
2022/04/19 01:23:51;;;;;;;;;;;8.90;80.60;;;;;;4985570;28;20026;-77
2022/04/19 01:26:18;;;;;;;;;;;8.90;81.70;;;;;;4983114;28;19926;-78
2022/04/19 01:28:45;;;;;;;;;;;8.90;82.50;;;;;;4988596;28;19926;-77
2022/04/19 01:31:12;;;;;;;;;;;8.90;83.10;;;;;;4975939;28;20511;-77
2022/04/19 01:33:38;;;;;;;;;;;8.80;83.00;;;;;;4983768;28;19927;-76
2022/04/19 01:36:05;;;;;;;;;;;8.80;83.40;;;;;;4996526;28;19934;-79
2022/04/19 01:38:32;;;;;;;;;;;8.70;83.70;;;;;;4980423;28;19941;-76
2022/04/19 01:41:00;;;;;;;;;;;8.60;85.10;;;;;;4983820;28;20032;-77
2022/04/19 01:43:27;;;;;;;;;;;8.60;86.40;;;;;;5006977;28;19938;-77
2022/04/19 01:45:54;;;;;;;;;;;8.60;87.80;;;;;;4987516;28;20005;-77
2022/04/19 01:48:21;;;;;;;;;;;8.50;89.00;;;;;;4987928;28;19926;-77
2022/04/19 01:50:47;;;;;;;;;;;8.50;89.80;;;;;;4989118;28;19940;-75
2022/04/19 01:53:14;;;;;;;;;;;8.50;90.20;;;;;;4986732;28;20455;-76
2022/04/19 01:55:42;;;;;;;;;;;8.40;90.70;;;;;;4988876;28;19932;-75
2022/04/19 01:58:10;;;;;;;;;;;8.40;91.20;;;;;;4983915;28;19971;-76
2022/04/19 02:00:37;;;;;;;;;;;8.30;91.50;;;;;;4986036;28;19937;-76
2022/04/19 02:03:04;;;;;;;;;;;8.30;92.10;;;;;;4986292;28;19948;-76
2022/04/19 02:05:30;;;;;;;;;;;8.30;92.50;;;;;;4983422;28;20270;-76
2022/04/19 02:07:57;;;;;;;;;;;8.20;93.40;;;;;;4985118;28;19933;-75
2022/04/19 02:10:24;;;;;;;;;;;8.10;94.10;;;;;;4983259;28;20006;-77
2022/04/19 02:12:51;;;;;;;;;;;8.10;94.90;;;;;;4991914;28;19932;-76
2022/04/19 02:15:19;;;;;;;;;;;8.10;95.60;;;;;;4991400;28;20020;-76
2022/04/19 02:17:46;;;;;;;;;;;8.10;96.20;;;;;;4988762;28;19926;-78
2022/04/19 02:20:14;;;;;;;;;;;8.00;96.70;;;;;;4980858;28;19926;-76
2022/04/19 02:22:42;;;;;;;;;;;8.00;97.30;;;;;;4984357;28;19936;-76
2022/04/19 02:25:09;;;;;;;;;;;8.00;98.00;;;;;;4982724;28;20492;-76
2022/04/19 02:27:37;;;;;;;;;;;7.90;98.50;;;;;;4978612;28;19926;-76
2022/04/19 02:30:04;;;;;;;;;;;7.90;99.10;;;;;;4981514;28;19961;-77
2022/04/19 02:32:33;;;;;;;;;;;7.90;99.70;;;;;;5019415;28;20393;-76
2022/04/19 02:35:00;;;;;;;;;;;7.90;99.90;;;;;;5007844;28;19932;-76
2022/04/19 02:37:27;;;;;;;;;;;7.90;99.90;;;;;;5002223;28;19932;-76
2022/04/19 02:39:54;;;;;;;;;;;7.90;99.90;;;;;;4989412;28;20369;-77
2022/04/19 02:42:21;;;;;;;;;;;7.90;99.90;;;;;;5034386;28;19928;-76
2022/04/19 02:44:47;;;;;;;;;;;7.80;99.90;;;;;;4994574;28;19933;-77
2022/04/19 02:47:15;;;;;;;;;;;7.80;99.90;;;;;;5032041;28;19924;-76
2022/04/19 02:49:45;;;;;;;;;;;7.80;99.90;;;;;;5020255;28;20019;-77
2022/04/19 02:52:12;;;;;;;;;;;7.80;99.90;;;;;;5008481;28;19977;-76
2022/04/19 02:54:38;;;;;;;;;;;7.80;99.90;;;;;;4984364;28;20447;-77
2022/04/19 02:57:05;;;;;;;;;;;7.80;99.90;;;;;;5021714;28;20376;-77
2022/04/19 02:59:32;;;;;;;;;;;7.70;99.90;;;;;;5017217;28;19926;-78
2022/04/19 03:01:58;;;;;;;;;;;7.70;99.90;;;;;;5020324;28;20033;-77
2022/04/19 03:04:25;;;;;;;;;;;7.70;99.90;;;;;;4979806;28;19925;-76
2022/04/19 03:06:53;;;;;;;;;;;7.70;99.90;;;;;;4988791;28;20220;-76
2022/04/19 03:09:20;;;;;;;;;;;7.60;99.90;;;;;;4991334;28;19936;-76
2022/04/19 03:11:46;;;;;;;;;;;7.60;99.90;;;;;;5007865;28;19932;-76
2022/04/19 03:14:13;;;;;;;;;;;7.50;99.90;;;;;;4978876;28;19926;-76
2022/04/19 03:16:40;;;;;;;;;;;7.50;99.90;;;;;;5011231;28;20016;-76
2022/04/19 03:19:07;;;;;;;;;;;7.50;99.90;;;;;;4981704;28;19932;-76
2022/04/19 03:21:34;;;;;;;;;;;7.50;99.90;;;;;;4998764;28;19933;-76
2022/04/19 03:29:41;;;;;;;;;;;7.40;99.90;;;;;;4987547;28;19979;-76
2022/04/19 03:32:09;;;;;;;;;;;7.40;99.90;;;;;;5028219;28;19924;-76
2022/04/19 03:34:36;;;;;;;;;;;7.30;99.90;;;;;;5001388;28;19926;-76
2022/04/19 03:37:03;;;;;;;;;;;7.30;99.90;;;;;;5044211;28;19934;-76
2022/04/19 03:39:31;;;;;;;;;;;7.30;99.90;;;;;;5028004;28;19934;-77
2022/04/19 03:41:58;;;;;;;;;;;7.30;99.90;;;;;;5031461;28;19932;-76
2022/04/19 03:44:25;;;;;;;;;;;7.20;99.90;;;;;;4993110;28;19926;-76
2022/04/19 03:47:10;;;;;;;;;;;7.20;99.90;;;;;;4991798;28;19972;-77
2022/04/19 03:49:37;;;;;;;;;;;7.10;99.90;;;;;;5010439;28;19949;-76
2022/04/19 03:52:04;;;;;;;;;;;7.10;99.90;;;;;;5034319;28;19934;-76
2022/04/19 03:54:34;;;;;;;;;;;7.00;99.90;;;;;;4991777;28;19933;-77
2022/04/19 03:57:03;;;;;;;;;;;6.90;99.90;;;;;;4990140;28;19969;-77
2022/04/19 03:59:32;;;;;;;;;;;6.80;99.90;;;;;;4994294;28;19961;-77
2022/04/19 04:01:59;;;;;;;;;;;6.70;99.90;;;;;;5007348;28;19926;-76
2022/04/19 04:04:30;;;;;;;;;;;6.70;99.90;;;;;;4985277;28;19926;-78
2022/04/19 04:06:57;;;;;;;;;;;6.60;99.90;;;;;;4994958;28;20479;-76
2022/04/19 04:09:23;;;;;;;;;;;6.50;99.90;;;;;;4977641;28;19926;-76
2022/04/19 04:11:52;;;;;;;;;;;6.50;99.90;;;;;;4982581;28;19926;-76
2022/04/19 04:14:18;;;;;;;;;;;6.50;99.90;;;;;;4991968;28;20386;-75
2022/04/19 04:16:45;;;;;;;;;;;6.60;99.90;;;;;;5000175;28;19926;-76
2022/04/19 04:19:11;;;;;;;;;;;6.60;99.90;;;;;;5053314;28;20415;-77
2022/04/19 04:21:38;;;;;;;;;;;6.70;99.90;;;;;;4972908;28;19932;-75
2022/04/19 04:24:05;;;;;;;;;;;6.60;99.90;;;;;;4989057;28;19990;-73
2022/04/19 04:26:32;;;;;;;;;;;6.70;99.90;;;;;;5016889;28;19934;-73
2022/04/19 04:29:00;;;;;;;;;;;6.70;99.90;;;;;;5062439;28;19926;-74
2022/04/19 04:31:26;;;;;;;;;;;6.60;99.90;;;;;;4981141;28;20407;-74
2022/04/19 04:33:53;;;;;;;;;;;6.60;99.90;;;;;;4980602;28;19953;-74
2022/04/19 04:36:20;;;;;;;;;;;6.50;99.90;;;;;;4989817;28;20464;-74
2022/04/19 04:38:47;;;;;;;;;;;6.30;99.90;;;;;;5022400;28;20372;-74
2022/04/19 04:41:13;;;;;;;;;;;6.20;99.90;;;;;;5009044;28;20013;-74
2022/04/19 04:43:40;;;;;;;;;;;6.20;99.90;;;;;;5007568;28;19926;-76
2022/04/19 04:51:37;;;;;;;;;;;6.30;99.90;;;;;;4983552;28;19933;-74
2022/04/19 04:54:03;;;;;;;;;;;6.40;99.90;;;;;;4974957;28;20014;-74
2022/04/19 04:56:30;;;;;;;;;;;6.40;99.90;;;;;;4982133;28;19926;-73
2022/04/19 04:58:57;;;;;;;;;;;6.40;99.90;;;;;;4989203;28;19924;-74
2022/04/19 05:01:25;;;;;;;;;;;6.30;99.90;;;;;;4987779;28;19965;-73
2022/04/19 05:03:51;;;;;;;;;;;6.40;99.90;;;;;;4977528;28;21021;-75
2022/04/19 05:06:18;;;;;;;;;;;6.40;99.90;;;;;;4988739;28;20009;-73
2022/04/19 05:08:45;;;;;;;;;;;6.50;99.90;;;;;;4980320;28;19933;-73
2022/04/19 05:11:11;;;;;;;;;;;6.60;99.90;;;;;;4991126;28;20022;-74
2022/04/19 05:13:38;;;;;;;;;;;6.60;99.90;;;;;;4983832;28;20009;-73
2022/04/19 05:16:05;;;;;;;;;;;6.70;99.90;;;;;;4983521;28;20009;-73
2022/04/19 05:18:33;;;;;;;;;;;6.70;99.90;;;;;;4973220;28;19926;-74
2022/04/19 05:20:59;;;;;;;;;;;6.70;99.90;;;;;;4982696;28;19926;-74
2022/04/19 05:23:26;;;;;;;;;;;6.70;99.90;;;;;;4987616;28;19985;-73
2022/04/19 05:25:53;;;;;;;;;;;6.80;99.90;;;;;;4990932;28;20020;-74
2022/04/19 05:28:20;;;;;;;;;;;6.90;99.90;;;;;;4980766;28;20021;-73
2022/04/19 05:30:47;;;;;;;;;;;7.00;99.90;;;;;;4988438;28;20020;-74
2022/04/19 05:33:13;;;;;;;;;;;7.10;99.90;;;;;;5026984;28;20616;-75
2022/04/19 05:35:42;;;;;;;;;;;7.20;99.90;;;;;;4977858;28;19933;-74
2022/04/19 05:38:08;;;;;;;;;;;7.30;99.90;;;;;;4983109;28;19926;-75
2022/04/19 05:40:35;;;;;;;;;;;7.40;99.90;;;;;;4983180;28;19926;-74
2022/04/19 05:43:02;;;;;;;;;;;7.50;99.90;;;;;;4981882;28;20561;-75
2022/04/19 05:45:29;;;;;;;;;;;7.70;99.90;;;;;;4975792;28;19932;-74
2022/04/19 05:47:55;;;;;;;;;;;7.70;99.90;;;;;;4983411;28;19933;-75
2022/04/19 05:50:22;;;;;;;;;;;7.80;99.90;;;;;;4985742;28;20013;-74
2022/04/19 05:52:50;;;;;;;;;;;7.90;99.90;;;;;;4981401;28;19972;-74
2022/04/19 05:55:17;;;;;;;;;;;8.00;99.90;;;;;;4976009;28;19930;-75
2022/04/19 05:57:44;;;;;;;;;;;8.20;99.90;;;;;;4981315;28;19935;-74
2022/04/19 06:00:11;;;;;;;;;;;8.30;99.90;;;;;;4974722;28;19940;-73
2022/04/19 06:05:22;;;;;;;;;;;8.70;99.90;;;;;;4974081;28;20400;-78
2022/04/19 06:07:52;;;;;;;;;;;8.90;99.90;;;;;;4984370;28;19926;-74
2022/04/19 06:10:20;;;;;;;;;;;9.00;99.90;;;;;;4984268;28;20343;-74
2022/04/19 06:12:47;;;;;;;;;;;9.00;99.90;;;;;;4989038;28;19933;-74
2022/04/19 06:15:14;;;;;;;;;;;8.90;99.90;;;;;;4990256;28;19940;-74
2022/04/19 06:17:41;;;;;;;;;;;9.00;99.90;;;;;;4990314;28;19926;-74
2022/04/19 06:20:08;;;;;;;;;;;9.00;99.90;;;;;;4989129;28;19976;-75
2022/04/19 06:22:34;;;;;;;;;;;9.00;99.90;;;;;;4972401;28;19926;-75
2022/04/19 06:25:02;;;;;;;;;;;9.00;99.90;;;;;;4978432;28;19939;-76
2022/04/19 06:27:30;;;;;;;;;;;9.20;99.90;;;;;;4982909;28;20025;-74
2022/04/19 06:29:58;;;;;;;;;;;9.40;99.90;;;;;;4983544;28;20408;-74
2022/04/19 06:32:24;;;;;;;;;;;9.90;99.90;;;;;;4973781;28;19980;-75
2022/04/19 06:34:53;;;;;;;;;;;9.90;99.90;;;;;;4982337;28;19925;-75
2022/04/19 06:37:19;;;;;;;;;;;10.30;99.90;;;;;;4980988;28;19926;-74
2022/04/19 06:39:46;;;;;;;;;;;10.40;99.90;;;;;;4984366;28;19934;-75
2022/04/19 06:42:13;;;;;;;;;;;10.70;99.90;;;;;;4977516;28;19932;-75
2022/04/19 06:44:44;;;;;;;;;;;10.90;99.90;;;;;;4971657;28;19926;-74
2022/04/19 06:47:11;;;;;;;;;;;11.00;99.90;;;;;;4977652;28;19926;-75
2022/04/19 06:49:38;;;;;;;;;;;11.20;99.90;;;;;;4977962;28;20021;-75
2022/04/19 06:52:06;;;;;;;;;;;11.30;99.80;;;;;;4982428;28;20399;-76
2022/04/19 06:54:33;;;;;;;;;;;11.50;99.80;;;;;;4980870;28;19932;-75
2022/04/19 06:56:59;;;;;;;;;;;11.80;99.10;;;;;;4979653;28;20473;-75
2022/04/19 06:59:26;;;;;;;;;;;11.90;98.90;;;;;;4978743;28;19930;-75
2022/04/19 07:01:54;;;;;;;;;;;12.10;97.10;;;;;;4982258;28;20400;-77
2022/04/19 07:04:21;;;;;;;;;;;12.20;96.10;;;;;;4978361;28;19930;-72
2022/04/19 07:06:47;;;;;;;;;;;12.20;96.40;;;;;;4980005;28;19940;-73
2022/04/19 07:09:14;;;;;;;;;;;12.50;96.10;;;;;;4986482;28;19926;-74
2022/04/19 07:11:41;;;;;;;;;;;13.50;94.70;;;;;;4982907;28;20021;-73
2022/04/19 07:14:07;;;;;;;;;;;14.60;92.30;;;;;;4978890;28;19926;-74
2022/04/19 07:16:34;;;;;;;;;;;16.20;85.80;;;;;;4981329;28;19926;-72
2022/04/19 07:19:02;;;;;;;;;;;17.40;71.30;;;;;;4977739;28;19948;-73
2022/04/19 07:27:09;;;;;;;;;;;18.00;53.40;;;;;;4983484;28;19926;-73
2022/04/19 07:29:36;;;;;;;;;;;18.20;50.00;;;;;;4981970;28;19932;-72
2022/04/19 07:32:02;;;;;;;;;;;18.50;44.10;;;;;;4984401;28;19926;-74
2022/04/19 07:34:30;;;;;;;;;;;17.50;44.80;;;;;;4983134;28;20017;-73
2022/04/19 07:36:57;;;;;;;;;;;17.00;47.00;;;;;;4979663;28;19934;-73
2022/04/19 07:39:24;;;;;;;;;;;15.70;47.00;;;;;;4982453;28;19934;-73
2022/04/19 07:41:51;;;;;;;;;;;15.40;48.70;;;;;;4976734;28;20380;-72
2022/04/19 07:44:18;;;;;;;;;;;15.00;52.30;;;;;;4982222;28;19930;-73
2022/04/19 07:46:45;;;;;;;;;;;15.80;49.30;;;;;;4981247;28;20289;-73
2022/04/19 07:49:12;;;;;;;;;;;15.90;49.20;;;;;;4977850;28;20402;-72
2022/04/19 07:51:40;;;;;;;;;;;16.80;48.20;;;;;;4979952;28;20391;-73
2022/04/19 07:54:06;;;;;;;;;;;16.60;44.20;;;;;;4978277;28;20199;-74
2022/04/19 07:56:33;;;;;;;;;;;15.70;44.70;;;;;;4986833;28;19969;-73
2022/04/19 07:59:00;;;;;;;;;;;16.10;44.80;;;;;;4979452;28;19929;-73
2022/04/19 08:01:27;;;;;;;;;;;17.10;43.10;;;;;;4980589;28;20021;-73
2022/04/19 08:03:53;;;;;;;;;;;17.60;41.00;;;;;;4986166;28;19930;-73
2022/04/19 08:06:22;;;;;;;;;;;16.50;41.00;;;;;;4973784;28;19930;-73
2022/04/19 08:08:50;;;;;;;;;;;16.50;42.00;;;;;;4985978;28;19926;-73
2022/04/19 08:11:16;;;;;;;;;;;16.80;40.00;;;;;;4982108;28;20036;-74
2022/04/19 08:13:43;;;;;;;;;;;16.60;38.30;;;;;;4979332;28;20013;-73
2022/04/19 08:16:10;;;;;;;;;;;16.00;37.00;;;;;;4976040;28;19933;-73
2022/04/19 08:18:37;;;;;;;;;;;15.90;42.00;;;;;;4981105;28;19926;-72
2022/04/19 08:21:04;;;;;;;;;;;16.40;41.90;;;;;;4976428;28;20134;-73
2022/04/19 08:23:30;;;;;;;;;;;16.70;41.10;;;;;;4982958;28;19932;-73
2022/04/19 08:25:58;;;;;;;;;;;17.60;38.30;;;;;;4976714;28;20017;-73
2022/04/19 08:28:25;;;;;;;;;;;17.50;35.90;;;;;;4982087;28;19955;-73
2022/04/19 08:30:52;;;;;;;;;;;18.50;34.70;;;;;;4976541;28;19934;-74
2022/04/19 08:33:19;;;;;;;;;;;18.60;32.10;;;;;;4986209;28;19984;-73
2022/04/19 08:35:46;;;;;;;;;;;17.80;32.20;;;;;;4974403;28;19930;-72
2022/04/19 08:38:12;;;;;;;;;;;17.70;32.20;;;;;;4978964;28;19932;-72
2022/04/19 08:40:39;;;;;;;;;;;16.80;32.90;;;;;;4976447;28;20300;-70
2022/04/19 08:43:08;;;;;;;;;;;17.40;32.80;;;;;;4981498;28;20385;-71
2022/04/19 08:45:34;;;;;;;;;;;18.20;31.00;;;;;;4981891;28;19926;-71
2022/04/19 08:48:01;;;;;;;;;;;18.80;29.40;;;;;;4984447;28;20029;-72
2022/04/19 08:50:29;;;;;;;;;;;19.30;26.30;;;;;;4989660;28;20411;-73
2022/04/19 08:58:25;;;;;;;;;;;18.00;24.30;;;;;;4984397;28;19979;-71
2022/04/19 09:00:52;;;;;;;;;;;18.00;22.50;;;;;;4990864;28;20281;-71
2022/04/19 09:03:19;;;;;;;;;;;17.40;20.90;;;;;;4970867;28;20313;-71
2022/04/19 09:05:50;;;;;;;;;;;17.20;22.50;;;;;;4981470;28;20269;-71
2022/04/19 09:08:17;;;;;;;;;;;17.70;21.50;;;;;;4976843;28;19937;-72
2022/04/19 09:10:44;;;;;;;;;;;17.20;21.70;;;;;;4982002;28;19926;-72
2022/04/19 09:13:11;;;;;;;;;;;17.30;20.80;;;;;;4984302;28;19926;-72
2022/04/19 09:15:40;;;;;;;;;;;17.10;20.60;;;;;;4982085;28;19932;-72
2022/04/19 09:18:13;;;;;;;;;;;17.20;20.50;;;;;;4974861;28;19948;-75
2022/04/19 09:20:40;;;;;;;;;;;17.50;20.90;;;;;;4972741;28;19934;-75
2022/04/19 09:23:07;;;;;;;;;;;17.10;20.30;;;;;;4986621;28;19927;-74
2022/04/19 09:25:35;;;;;;;;;;;17.20;20.90;;;;;;4979428;28;20320;-73
2022/04/19 09:28:02;;;;;;;;;;;17.30;20.50;;;;;;4972532;28;19934;-72
2022/04/19 09:30:30;;;;;;;;;;;17.70;21.90;;;;;;4981826;28;19961;-73
2022/04/19 09:33:05;;;;;;;;;;;18.20;20.40;;;;;;4977522;28;19933;-71
2022/04/19 09:35:32;;;;;;;;;;;17.90;18.60;;;;;;4979566;28;19928;-73
2022/04/19 09:37:59;;;;;;;;;;;17.20;20.00;;;;;;4979830;28;20395;-72
2022/04/19 09:40:29;;;;;;;;;;;17.30;20.10;;;;;;4980551;28;19961;-72
2022/04/19 09:42:55;;;;;;;;;;;18.10;20.90;;;;;;4980256;28;20020;-71
2022/04/19 09:45:22;;;;;;;;;;;18.40;19.50;;;;;;4975387;28;19956;-74
2022/04/19 09:47:52;;;;;;;;;;;19.00;18.40;;;;;;4988040;28;19926;-73
2022/04/19 09:50:22;;;;;;;;;;;18.60;17.90;;;;;;4981514;28;19934;-73
2022/04/19 09:52:51;;;;;;;;;;;18.40;17.70;;;;;;4984946;28;20016;-74
2022/04/19 09:55:18;;;;;;;;;;;18.70;15.30;;;;;;4982469;28;19934;-71
2022/04/19 09:57:47;;;;;;;;;;;18.50;14.20;;;;;;4982470;28;19932;-71
2022/04/19 10:00:14;;;;;;;;;;;18.20;16.10;;;;;;4975049;28;19980;-70
2022/04/19 10:08:14;;;;;;;;;;;17.80;13.20;;;;;;4975919;28;20309;-70
2022/04/19 10:10:41;;;;;;;;;;;17.80;13.20;;;;;;4976430;28;19944;-71
2022/04/19 10:13:08;;;;;;;;;;;17.50;14.40;;;;;;4978420;28;19979;-70
2022/04/19 10:15:35;;;;;;;;;;;17.50;15.40;;;;;;4980835;28;19962;-72
2022/04/19 10:18:04;;;;;;;;;;;17.30;13.20;;;;;;4977813;28;19949;-73
2022/04/19 10:20:33;;;;;;;;;;;17.60;12.60;;;;;;4976436;28;19965;-72
2022/04/19 10:23:03;;;;;;;;;;;17.70;14.00;;;;;;4982316;28;19987;-73
2022/04/19 10:25:43;;;;;;;;;;;17.80;13.10;;;;;;4978911;28;20016;-72
2022/04/19 10:28:10;;;;;;;;;;;17.90;12.90;;;;;;4976148;28;19941;-73
2022/04/19 10:30:38;;;;;;;;;;;17.80;11.90;;;;;;4982539;28;19997;-72
2022/04/19 10:33:38;;;;;;;;;;;17.70;9.40;;;;;;4984875;28;20352;-71
2022/04/19 10:36:13;;;;;;;;;;;17.60;9.30;;;;;;4983024;28;19987;-71
2022/04/19 10:38:39;;;;;;;;;;;17.50;8.30;;;;;;4977168;28;20012;-73
2022/04/19 10:41:06;;;;;;;;;;;17.70;9.10;;;;;;4977266;28;19927;-71
2022/04/19 10:43:33;;;;;;;;;;;17.60;10.20;;;;;;4979335;28;20021;-71
2022/04/19 10:46:14;;;;;;;;;;;17.80;10.00;;;;;;4979285;28;19933;-70
2022/04/19 10:48:56;;;;;;;;;;;17.90;8.10;;;;;;4974234;28;20008;-71
2022/04/19 10:51:30;;;;;;;;;;;17.70;7.90;;;;;;4982779;28;19961;-71
2022/04/19 10:53:59;;;;;;;;;;;17.60;9.80;;;;;;4981813;28;20426;-71
2022/04/19 10:56:26;;;;;;;;;;;17.80;8.80;;;;;;4981567;28;19931;-71
2022/04/19 10:58:53;;;;;;;;;;;17.70;8.40;;;;;;4985658;28;20420;-71
2022/04/19 11:01:29;;;;;;;;;;;17.90;8.70;;;;;;4985097;28;19976;-75
2022/04/19 11:03:56;;;;;;;;;;;17.90;9.80;;;;;;4982715;28;19933;-75
2022/04/19 11:06:32;;;;;;;;;;;17.80;8.60;;;;;;4986854;28;19926;-75
2022/04/19 11:09:21;;;;;;;;;;;18.10;8.70;;;;;;4989127;28;19930;-75
2022/04/19 11:11:48;;;;;;;;;;;17.80;8.80;;;;;;4981617;28;19926;-77
2022/04/19 11:14:23;;;;;;;;;;;17.90;6.40;;;;;;4979239;28;20301;-76
2022/04/19 11:16:51;;;;;;;;;;;18.10;8.30;;;;;;4982512;28;19926;-75
2022/04/19 11:19:19;;;;;;;;;;;17.90;6.90;;;;;;4983614;28;19934;-74
2022/04/19 11:21:55;;;;;;;;;;;18.20;6.10;;;;;;4979171;28;20494;-73
2022/04/19 11:24:40;;;;;;;;;;;18.30;9.30;;;;;;4974988;28;19995;-75
2022/04/19 11:27:07;;;;;;;;;;;18.20;7.30;;;;;;4984934;28;20319;-75
2022/04/19 11:29:46;;;;;;;;;;;18.10;9.80;;;;;;4982825;28;20004;-75
2022/04/19 11:32:13;;;;;;;;;;;18.40;8.10;;;;;;4977048;28;19925;-73
2022/04/19 11:34:39;;;;;;;;;;;18.20;8.80;;;;;;4974709;28;20041;-73
2022/04/19 11:37:09;;;;;;;;;;;17.90;9.40;;;;;;4975278;28;20005;-72
2022/04/19 11:47:55;;;;;;;;;;;17.90;11.20;;;;;;4977519;28;19976;-74
2022/04/19 11:50:25;;;;;;;;;;;18.20;10.60;;;;;;4986992;28;20008;-73
2022/04/19 11:52:53;;;;;;;;;;;18.50;10.20;;;;;;4983454;28;19934;-73
2022/04/19 11:55:24;;;;;;;;;;;18.40;12.20;;;;;;4982905;28;19935;-74
2022/04/19 11:58:01;;;;;;;;;;;18.40;11.20;;;;;;4983782;28;19991;-74
2022/04/19 12:00:28;;;;;;;;;;;18.40;10.10;;;;;;4981244;28;19936;-73
2022/04/19 12:02:54;;;;;;;;;;;19.10;10.30;;;;;;4982476;28;19932;-74
2022/04/19 12:05:25;;;;;;;;;;;19.10;9.10;;;;;;4980157;28;19932;-74
2022/04/19 12:07:55;;;;;;;;;;;18.50;9.70;;;;;;4978082;28;19926;-74
2022/04/19 12:10:22;;;;;;;;;;;18.60;8.90;;;;;;4978041;28;20441;-73
2022/04/19 12:12:49;;;;;;;;;;;18.70;10.40;;;;;;4979160;28;20425;-73
2022/04/19 12:15:30;;;;;;;;;;;18.50;9.50;;;;;;4979637;28;19929;-73
2022/04/19 12:17:57;;;;;;;;;;;18.80;9.40;;;;;;4982325;28;19933;-73
2022/04/19 12:20:23;;;;;;;;;;;18.60;8.50;;;;;;4981763;28;20315;-73
2022/04/19 12:22:50;;;;;;;;;;;18.40;10.20;;;;;;4974771;28;20416;-73
2022/04/19 12:25:23;;;;;;;;;;;18.40;9.00;;;;;;4977218;28;19978;-74
2022/04/19 12:27:52;;;;;;;;;;;18.40;9.80;;;;;;4976291;28;19933;-73
2022/04/19 12:30:20;;;;;;;;;;;18.40;10.10;;;;;;4982468;28;20041;-73
2022/04/19 12:32:51;;;;;;;;;;;18.60;8.80;;;;;;4981937;28;19965;-74
2022/04/19 12:35:18;;;;;;;;;;;18.60;8.70;;;;;;4985417;28;19936;-72
2022/04/19 12:37:45;;;;;;;;;;;18.40;7.40;;;;;;4989896;28;19932;-73
2022/04/19 12:40:12;;;;;;;;;;;18.60;8.50;;;;;;4976335;28;20021;-73
2022/04/19 12:42:51;;;;;;;;;;;18.80;7.80;;;;;;4973379;28;19937;-72
2022/04/19 12:45:18;;;;;;;;;;;18.50;6.90;;;;;;4985031;28;19929;-73
2022/04/19 12:47:46;;;;;;;;;;;18.50;8.30;;;;;;4984141;28;19926;-73
2022/04/19 12:50:13;;;;;;;;;;;18.80;7.40;;;;;;4979230;28;20359;-72
2022/04/19 12:52:41;;;;;;;;;;;19.10;6.70;;;;;;4993991;28;19969;-72
2022/04/19 12:55:09;;;;;;;;;;;19.20;8.20;;;;;;4987960;28;19943;-73
2022/04/19 12:57:38;;;;;;;;;;;19.10;7.80;;;;;;4986394;28;19929;-72
2022/04/19 13:00:09;;;;;;;;;;;19.00;7.80;;;;;;4982175;28;19971;-73
2022/04/19 13:02:36;;;;;;;;;;;18.80;6.70;;;;;;4981624;28;19926;-73
2022/04/19 13:05:03;;;;;;;;;;;18.80;9.00;;;;;;4992348;28;19998;-74
2022/04/19 13:12:59;;;;;;;;;;;19.40;7.30;;;;;;4980761;28;19938;-72
2022/04/19 13:15:27;;;;;;;;;;;19.50;7.70;;;;;;4981127;28;20300;-71
2022/04/19 13:17:54;;;;;;;;;;;19.70;8.40;;;;;;4989790;28;19930;-70
2022/04/19 13:20:21;;;;;;;;;;;19.00;7.60;;;;;;4987568;28;19932;-70
2022/04/19 13:22:47;;;;;;;;;;;19.30;9.00;;;;;;4974225;28;19926;-71
2022/04/19 13:25:14;;;;;;;;;;;19.20;9.00;;;;;;4982891;28;20335;-71
2022/04/19 13:27:41;;;;;;;;;;;19.40;9.30;;;;;;4971849;28;20389;-71
2022/04/19 13:30:09;;;;;;;;;;;19.40;8.50;;;;;;4980030;28;19930;-71
2022/04/19 13:32:38;;;;;;;;;;;19.50;9.00;;;;;;4983721;28;20339;-71
2022/04/19 13:35:05;;;;;;;;;;;19.80;9.50;;;;;;4986716;28;19944;-72
2022/04/19 13:40:17;;;;;;;;;;;19.90;8.10;;;;;;4980173;28;19987;-71
2022/04/19 13:42:44;;;;;;;;;;;19.90;7.10;;;;;;4980702;28;20343;-71
2022/04/19 13:45:11;;;;;;;;;;;20.10;7.20;;;;;;4985026;28;19953;-71
2022/04/19 13:47:41;;;;;;;;;;;20.30;7.50;;;;;;4973856;28;20373;-71
2022/04/19 13:50:08;;;;;;;;;;;20.10;6.80;;;;;;4981557;28;19948;-70
2022/04/19 13:52:35;;;;;;;;;;;19.80;7.10;;;;;;4988576;28;19926;-71
2022/04/19 13:55:02;;;;;;;;;;;19.80;7.40;;;;;;4983025;28;20375;-72
2022/04/19 13:57:29;;;;;;;;;;;19.60;8.60;;;;;;4978847;28;19961;-72
2022/04/19 13:59:55;;;;;;;;;;;20.10;8.80;;;;;;4985010;28;20183;-72
2022/04/19 14:02:22;;;;;;;;;;;19.90;7.60;;;;;;4984752;28;19933;-71
2022/04/19 14:04:50;;;;;;;;;;;19.90;8.90;;;;;;4983749;28;20025;-69
2022/04/19 14:07:17;;;;;;;;;;;19.60;6.80;;;;;;4972526;28;20068;-71
2022/04/19 14:09:43;;;;;;;;;;;19.50;8.00;;;;;;4987743;28;19943;-71
2022/04/19 14:12:11;;;;;;;;;;;19.70;8.20;;;;;;4971991;28;19984;-70
2022/04/19 14:14:38;;;;;;;;;;;20.00;6.30;;;;;;4980625;28;19948;-72
2022/04/19 14:17:06;;;;;;;;;;;20.20;8.00;;;;;;4982738;28;20476;-72
2022/04/19 14:19:34;;;;;;;;;;;20.40;5.40;;;;;;4978552;28;20034;-71
2022/04/19 14:22:02;;;;;;;;;;;20.40;6.60;;;;;;4991656;28;19932;-72
2022/04/19 14:24:32;;;;;;;;;;;20.10;6.80;;;;;;4981657;28;19936;-71
2022/04/19 14:26:59;;;;;;;;;;;20.30;7.50;;;;;;4977552;28;19926;-71
2022/04/19 14:34:58;;;;;;;;;;;19.90;6.60;;;;;;4974055;28;19971;-70
2022/04/19 14:37:27;;;;;;;;;;;19.90;5.70;;;;;;4976343;28;19933;-71
2022/04/19 14:39:54;;;;;;;;;;;19.90;5.70;;;;;;4976883;28;19930;-74
2022/04/19 14:42:20;;;;;;;;;;;20.20;6.30;;;;;;4983569;28;19965;-70
2022/04/19 14:44:50;;;;;;;;;;;20.10;5.20;;;;;;4984000;28;20020;-70
2022/04/19 14:47:19;;;;;;;;;;;20.40;5.00;;;;;;4968529;28;20652;-70
2022/04/19 14:50:01;;;;;;;;;;;20.30;5.80;;;;;;4979382;28;19930;-70
2022/04/19 14:52:29;;;;;;;;;;;19.90;7.90;;;;;;4973901;28;20393;-71
2022/04/19 14:54:58;;;;;;;;;;;19.70;4.70;;;;;;4976147;28;19973;-70
2022/04/19 14:57:33;;;;;;;;;;;19.90;5.90;;;;;;4980628;28;19961;-71
2022/04/19 15:00:00;;;;;;;;;;;19.90;4.80;;;;;;4978748;28;20013;-70
2022/04/19 15:02:27;;;;;;;;;;;19.80;4.60;;;;;;4986724;28;19937;-72
2022/04/19 15:04:54;;;;;;;;;;;19.90;5.40;;;;;;4977448;28;20021;-71
2022/04/19 15:07:21;;;;;;;;;;;19.70;5.40;;;;;;4977070;28;19976;-70
2022/04/19 15:09:50;;;;;;;;;;;19.50;7.10;;;;;;4983943;28;20397;-70
2022/04/19 15:12:18;;;;;;;;;;;19.60;6.80;;;;;;4973852;28;19973;-69
2022/04/19 15:14:44;;;;;;;;;;;19.90;6.20;;;;;;4976560;28;19926;-71
2022/04/19 15:17:12;;;;;;;;;;;20.20;6.30;;;;;;4972923;28;19941;-70
2022/04/19 15:19:39;;;;;;;;;;;20.00;6.80;;;;;;4976035;28;19933;-69
2022/04/19 15:22:06;;;;;;;;;;;19.50;6.90;;;;;;4980362;28;19926;-70
2022/04/19 15:24:33;;;;;;;;;;;19.40;6.90;;;;;;4977759;28;19925;-70